LPPS/PXO METAR and TAF weather

Enter ICAO airport designator
Station Type Date Time Source
LPPS METAR 2020/12/06 00:30 UTC NOAA

LPPS 060030Z 36014KT 330V030 9999 FEW015 15/09 Q1024


Station Type Date Time Source
LPPS Decoded METAR 2020/12/06 00:30 UTC NOAA

Porto Santo, Portugal (LPPS) 33-04N 016-21W 82M
Dec 05, 2020 - 07:30 PM EST / 2020.12.06 0030 UTC
Wind: from the N (360 degrees) at 16 MPH (14 KT) (direction variable):0
Visibility: greater than 7 mile(s):0
Sky conditions: mostly clear
Temperature: 59 F (15 C)
Dew Point: 48 F (9 C)
Relative Humidity: 67%
Pressure (altimeter): 30.24 in. Hg (1024 hPa)
ob: LPPS 060030Z 36014KT 330V030 9999 FEW015 15/09 Q1024
cycle: 0

Station Type Date Time Source
LPPS TAF 2020/12/05 18:18 UTC NOAA

TAF LPPS 051700Z 0518/0624 36017KT 9999 SCT015
TEMPO 0518/0612 36020G30KT 8000 SHRA BKN012
BECMG 0612/0615 01010KT

Example: see airport list